sensor_id;sensor_type;location;lat;lon;timestamp;pressure;altitude;pressure_sealevel;temperature;humidity
69751;BME280;57335;52.288;6.056;2023-03-18T00:02:11;100746.13;;;11.98;75.13
69751;BME280;57335;52.288;6.056;2023-03-18T00:04:39;100740.66;;;12.00;75.24
69751;BME280;57335;52.288;6.056;2023-03-18T00:07:05;100739.06;;;11.99;75.19
69751;BME280;57335;52.288;6.056;2023-03-18T00:09:32;100737.22;;;12.00;75.17
69751;BME280;57335;52.288;6.056;2023-03-18T00:11:58;100734.22;;;11.96;75.24
69751;BME280;57335;52.288;6.056;2023-03-18T00:14:24;100735.25;;;11.95;75.64
69751;BME280;57335;52.288;6.056;2023-03-18T00:16:51;100736.13;;;11.89;75.72
69751;BME280;57335;52.288;6.056;2023-03-18T00:19:17;100740.38;;;11.83;76.20
69751;BME280;57335;52.288;6.056;2023-03-18T00:21:44;100750.72;;;11.78;76.57
69751;BME280;57335;52.288;6.056;2023-03-18T00:24:10;100759.69;;;11.70;76.59
69751;BME280;57335;52.288;6.056;2023-03-18T00:26:37;100750.63;;;11.66;76.52
69751;BME280;57335;52.288;6.056;2023-03-18T00:29:03;100757.78;;;11.59;77.40
69751;BME280;57335;52.288;6.056;2023-03-18T00:31:30;100765.06;;;11.57;77.69
69751;BME280;57335;52.288;6.056;2023-03-18T00:33:56;100765.91;;;11.51;77.78
69751;BME280;57335;52.288;6.056;2023-03-18T00:36:23;100761.66;;;11.50;77.93
69751;BME280;57335;52.288;6.056;2023-03-18T00:38:50;100768.75;;;11.49;78.26
69751;BME280;57335;52.288;6.056;2023-03-18T00:41:17;100763.91;;;11.46;78.12
69751;BME280;57335;52.288;6.056;2023-03-18T00:43:46;100772.81;;;11.45;78.68
69751;BME280;57335;52.288;6.056;2023-03-18T00:46:15;100762.72;;;11.42;78.59
69751;BME280;57335;52.288;6.056;2023-03-18T00:48:42;100774.25;;;11.41;78.63
69751;BME280;57335;52.288;6.056;2023-03-18T00:51:09;100765.63;;;11.34;78.36
69751;BME280;57335;52.288;6.056;2023-03-18T00:53:36;100779.38;;;11.29;79.17
69751;BME280;57335;52.288;6.056;2023-03-18T00:56:03;100779.84;;;11.20;79.46
69751;BME280;57335;52.288;6.056;2023-03-18T00:58:29;100782.91;;;11.10;79.86
69751;BME280;57335;52.288;6.056;2023-03-18T01:00:56;100787.03;;;10.99;80.19
69751;BME280;57335;52.288;6.056;2023-03-18T01:03:22;100787.03;;;10.92;80.32
69751;BME280;57335;52.288;6.056;2023-03-18T01:05:48;100787.50;;;10.83;80.74
69751;BME280;57335;52.288;6.056;2023-03-18T01:08:15;100789.78;;;10.72;80.94
69751;BME280;57335;52.288;6.056;2023-03-18T01:10:42;100784.53;;;10.66;81.01
69751;BME280;57335;52.288;6.056;2023-03-18T01:13:08;100798.91;;;10.56;81.51
69751;BME280;57335;52.288;6.056;2023-03-18T01:15:34;100788.03;;;10.46;81.78
69751;BME280;57335;52.288;6.056;2023-03-18T01:18:01;100784.44;;;10.41;82.33
69751;BME280;57335;52.288;6.056;2023-03-18T01:20:27;100782.63;;;10.34;82.57
69751;BME280;57335;52.288;6.056;2023-03-18T01:22:54;100787.06;;;10.34;83.05
69751;BME280;57335;52.288;6.056;2023-03-18T01:25:20;100791.09;;;10.36;83.24
69751;BME280;57335;52.288;6.056;2023-03-18T01:27:46;100786.47;;;10.38;83.52
69751;BME280;57335;52.288;6.056;2023-03-18T01:30:13;100791.06;;;10.43;83.39
69751;BME280;57335;52.288;6.056;2023-03-18T01:32:40;100786.44;;;10.45;82.91
69751;BME280;57335;52.288;6.056;2023-03-18T01:35:07;100789.66;;;10.47;82.69
69751;BME280;57335;52.288;6.056;2023-03-18T01:37:33;100786.44;;;10.45;84.14
69751;BME280;57335;52.288;6.056;2023-03-18T01:40:00;100793.69;;;10.43;84.41
69751;BME280;57335;52.288;6.056;2023-03-18T01:42:27;100787.88;;;10.34;86.55
69751;BME280;57335;52.288;6.056;2023-03-18T01:45:29;100791.25;;;10.28;87.91
69751;BME280;57335;52.288;6.056;2023-03-18T01:47:56;100791.47;;;10.20;88.26
69751;BME280;57335;52.288;6.056;2023-03-18T01:50:26;100793.09;;;10.21;87.80
69751;BME280;57335;52.288;6.056;2023-03-18T01:52:56;100789.47;;;10.22;87.83
69751;BME280;57335;52.288;6.056;2023-03-18T01:55:27;100791.47;;;10.20;88.56
69751;BME280;57335;52.288;6.056;2023-03-18T01:57:55;100789.47;;;10.22;87.92
69751;BME280;57335;52.288;6.056;2023-03-18T02:00:22;100792.91;;;10.23;87.79
69751;BME280;57335;52.288;6.056;2023-03-18T02:02:50;100795.53;;;10.23;87.76
69751;BME280;57335;52.288;6.056;2023-03-18T02:05:21;100792.69;;;10.24;87.57
69751;BME280;57335;52.288;6.056;2023-03-18T02:07:48;100791.88;;;10.24;87.08
69751;BME280;57335;52.288;6.056;2023-03-18T02:10:25;100791.09;;;10.23;88.23
69751;BME280;57335;52.288;6.056;2023-03-18T02:12:55;100794.50;;;10.24;88.06
69751;BME280;57335;52.288;6.056;2023-03-18T02:15:24;100797.13;;;10.24;88.13
69751;BME280;57335;52.288;6.056;2023-03-18T02:17:55;100788.06;;;10.19;88.15
69751;BME280;57335;52.288;6.056;2023-03-18T02:22:57;100793.09;;;10.28;88.46
69751;BME280;57335;52.288;6.056;2023-03-18T02:28:01;100797.53;;;10.27;88.05
69751;BME280;57335;52.288;6.056;2023-03-18T02:30:43;100795.91;;;10.26;89.84
69751;BME280;57335;52.288;6.056;2023-03-18T02:33:13;100803.97;;;10.25;90.54
69751;BME280;57335;52.288;6.056;2023-03-18T02:35:43;100805.56;;;10.26;89.67
69751;BME280;57335;52.288;6.056;2023-03-18T02:38:10;100795.53;;;10.23;88.85
69751;BME280;57335;52.288;6.056;2023-03-18T02:40:39;100809.22;;;10.25;88.69
69751;BME280;57335;52.288;6.056;2023-03-18T02:46:02;100806.41;;;10.19;89.24
69751;BME280;57335;52.288;6.056;2023-03-18T02:48:34;100812.06;;;10.16;90.56
69751;BME280;57335;52.288;6.056;2023-03-18T02:51:02;100814.47;;;10.11;90.27
69751;BME280;57335;52.288;6.056;2023-03-18T02:53:28;100801.38;;;10.11;91.57
69751;BME280;57335;52.288;6.056;2023-03-18T02:55:55;100813.47;;;10.12;91.07
69751;BME280;57335;52.288;6.056;2023-03-18T02:58:21;100816.09;;;10.12;90.65
69751;BME280;57335;52.288;6.056;2023-03-18T03:00:48;100816.09;;;10.12;91.48
69751;BME280;57335;52.288;6.056;2023-03-18T03:03:14;100816.47;;;10.16;90.71
69751;BME280;57335;52.288;6.056;2023-03-18T03:05:41;100810.84;;;10.19;91.10
69751;BME280;57335;52.288;6.056;2023-03-18T03:08:08;100816.88;;;10.19;90.99
69751;BME280;57335;52.288;6.056;2023-03-18T03:10:34;100817.47;;;10.22;90.99
69751;BME280;57335;52.288;6.056;2023-03-18T03:13:01;100824.34;;;10.23;90.30
69751;BME280;57335;52.288;6.056;2023-03-18T03:15:27;100824.34;;;10.23;90.21
69751;BME280;57335;52.288;6.056;2023-03-18T03:17:56;100823.72;;;10.21;89.99
69751;BME280;57335;52.288;6.056;2023-03-18T03:20:22;100819.69;;;10.18;90.23
69751;BME280;57335;52.288;6.056;2023-03-18T03:22:49;100817.28;;;10.16;90.24
69751;BME280;57335;52.288;6.056;2023-03-18T03:25:16;100820.31;;;10.13;89.91
69751;BME280;57335;52.288;6.056;2023-03-18T03:27:42;100818.72;;;10.12;89.97
69751;BME280;57335;52.288;6.056;2023-03-18T03:30:10;100833.81;;;10.10;91.04
69751;BME280;57335;52.288;6.056;2023-03-18T03:32:37;100828.97;;;10.07;91.22
69751;BME280;57335;52.288;6.056;2023-03-18T03:35:05;100831.00;;;10.05;91.83
69751;BME280;57335;52.288;6.056;2023-03-18T03:37:31;100831.38;;;10.02;92.95
69751;BME280;57335;52.288;6.056;2023-03-18T03:39:57;100837.44;;;10.03;93.72
69751;BME280;57335;52.288;6.056;2023-03-18T03:42:24;100836.03;;;10.07;92.34
69751;BME280;57335;52.288;6.056;2023-03-18T03:44:51;100833.81;;;10.10;93.20
69751;BME280;57335;52.288;6.056;2023-03-18T03:47:17;100840.03;;;10.16;92.83
69751;BME280;57335;52.288;6.056;2023-03-18T03:49:43;100837.03;;;10.19;92.30
69751;BME280;57335;52.288;6.056;2023-03-18T03:52:10;100845.06;;;10.24;92.23
69751;BME280;57335;52.288;6.056;2023-03-18T03:54:36;100845.06;;;10.24;92.77
69751;BME280;57335;52.288;6.056;2023-03-18T03:57:02;100844.06;;;10.25;92.04
69751;BME280;57335;52.288;6.056;2023-03-18T03:59:29;100843.88;;;10.27;93.07
69751;BME280;57335;52.288;6.056;2023-03-18T04:01:55;100839.44;;;10.27;92.50
69751;BME280;57335;52.288;6.056;2023-03-18T04:04:22;100842.50;;;10.31;92.51
69751;BME280;57335;52.288;6.056;2023-03-18T04:06:48;100838.03;;;10.31;91.90
69751;BME280;57335;52.288;6.056;2023-03-18T04:09:14;100843.47;;;10.30;92.23
69751;BME280;57335;52.288;6.056;2023-03-18T04:11:41;100851.34;;;10.30;92.88
69751;BME280;57335;52.288;6.056;2023-03-18T04:14:07;100854.53;;;10.25;93.04
69751;BME280;57335;52.288;6.056;2023-03-18T04:16:34;100848.50;;;10.25;92.05
69751;BME280;57335;52.288;6.056;2023-03-18T04:19:00;100855.34;;;10.26;91.79
69751;BME280;57335;52.288;6.056;2023-03-18T04:21:27;100859.59;;;10.27;92.09
69751;BME280;57335;52.288;6.056;2023-03-18T04:23:53;100870.84;;;10.27;92.26
69751;BME280;57335;52.288;6.056;2023-03-18T04:26:20;100865.03;;;10.25;92.37
69751;BME280;57335;52.288;6.056;2023-03-18T04:28:46;100866.84;;;10.25;92.92
69751;BME280;57335;52.288;6.056;2023-03-18T04:31:12;100863.81;;;10.21;93.39
69751;BME280;57335;52.288;6.056;2023-03-18T04:33:39;100869.25;;;10.19;93.86
69751;BME280;57335;52.288;6.056;2023-03-18T04:36:06;100867.06;;;10.16;94.30
69751;BME280;57335;52.288;6.056;2023-03-18T04:38:32;100872.69;;;10.13;94.76
69751;BME280;57335;52.288;6.056;2023-03-18T04:40:59;100861.59;;;10.11;95.50
69751;BME280;57335;52.288;6.056;2023-03-18T04:43:25;100870.69;;;10.09;96.76
69751;BME280;57335;52.288;6.056;2023-03-18T04:45:52;100864.63;;;10.02;96.85
69751;BME280;57335;52.288;6.056;2023-03-18T04:48:18;100867.66;;;9.98;97.07
69751;BME280;57335;52.288;6.056;2023-03-18T04:50:45;100870.06;;;10.00;97.67
69751;BME280;57335;52.288;6.056;2023-03-18T04:53:11;100870.88;;;10.01;97.33
69751;BME280;57335;52.288;6.056;2023-03-18T04:55:38;100870.06;;;10.00;97.41
69751;BME280;57335;52.288;6.056;2023-03-18T04:58:04;100875.09;;;10.02;97.54
69751;BME280;57335;52.288;6.056;2023-03-18T05:00:31;100873.28;;;10.02;98.55
69751;BME280;57335;52.288;6.056;2023-03-18T05:02:58;100879.72;;;9.99;99.20
69751;BME280;57335;52.288;6.056;2023-03-18T05:05:25;100868.84;;;9.96;97.83
69751;BME280;57335;52.288;6.056;2023-03-18T05:07:51;100875.28;;;10.00;98.27
69751;BME280;57335;52.288;6.056;2023-03-18T05:10:18;100873.69;;;9.99;100.00
69751;BME280;57335;52.288;6.056;2023-03-18T05:12:45;100876.69;;;9.96;100.00
69751;BME280;57335;52.288;6.056;2023-03-18T05:15:11;100870.84;;;9.94;100.00
69751;BME280;57335;52.288;6.056;2023-03-18T05:17:37;100880.75;;;9.98;100.00
69751;BME280;57335;52.288;6.056;2023-03-18T05:20:04;100880.75;;;9.98;100.00
69751;BME280;57335;52.288;6.056;2023-03-18T05:22:31;100874.50;;;9.99;100.00
69751;BME280;57335;52.288;6.056;2023-03-18T05:24:57;100877.91;;;10.00;100.00
69751;BME280;57335;52.288;6.056;2023-03-18T05:27:24;100878.13;;;9.98;100.00
69751;BME280;57335;52.288;6.056;2023-03-18T05:29:51;100873.09;;;9.97;100.00
69751;BME280;57335;52.288;6.056;2023-03-18T05:32:17;100874.69;;;9.91;100.00
69751;BME280;57335;52.288;6.056;2023-03-18T05:34:43;100884.16;;;9.92;100.00
69751;BME280;57335;52.288;6.056;2023-03-18T05:37:12;100883.34;;;9.92;100.00
69751;BME280;57335;52.288;6.056;2023-03-18T05:39:39;100881.13;;;9.95;100.00
69751;BME280;57335;52.288;6.056;2023-03-18T05:42:08;100883.38;;;9.98;100.00
69751;BME280;57335;52.288;6.056;2023-03-18T05:44:35;100883.34;;;10.05;100.00
69751;BME280;57335;52.288;6.056;2023-03-18T05:47:01;100881.16;;;10.09;100.00
69751;BME280;57335;52.288;6.056;2023-03-18T05:49:28;100884.38;;;10.11;100.00
69751;BME280;57335;52.288;6.056;2023-03-18T05:51:54;100890.19;;;10.06;100.00
69751;BME280;57335;52.288;6.056;2023-03-18T05:54:21;100895.44;;;10.06;100.00
69751;BME280;57335;52.288;6.056;2023-03-18T05:56:47;100899.47;;;10.02;100.00
69751;BME280;57335;52.288;6.056;2023-03-18T05:59:14;100903.28;;;9.99;100.00
69751;BME280;57335;52.288;6.056;2023-03-18T06:01:41;100909.31;;;10.00;100.00
69751;BME280;57335;52.288;6.056;2023-03-18T06:04:07;100904.31;;;9.98;100.00
69751;BME280;57335;52.288;6.056;2023-03-18T06:06:35;100907.53;;;10.01;100.00
69751;BME280;57335;52.288;6.056;2023-03-18T06:09:02;100911.94;;;10.00;100.00
69751;BME280;57335;52.288;6.056;2023-03-18T06:11:29;100909.53;;;10.05;100.00
69751;BME280;57335;52.288;6.056;2023-03-18T06:13:55;100921.63;;;10.06;100.00
69751;BME280;57335;52.288;6.056;2023-03-18T06:16:22;100918.00;;;10.07;100.00
69751;BME280;57335;52.288;6.056;2023-03-18T06:18:51;100918.00;;;10.07;100.00
69751;BME280;57335;52.288;6.056;2023-03-18T06:21:17;100920.63;;;10.07;100.00
69751;BME280;57335;52.288;6.056;2023-03-18T06:23:44;100923.84;;;10.09;100.00
69751;BME280;57335;52.288;6.056;2023-03-18T06:26:10;100940.34;;;10.10;100.00
69751;BME280;57335;52.288;6.056;2023-03-18T06:28:36;100944.19;;;10.07;100.00
69751;BME280;57335;52.288;6.056;2023-03-18T06:31:03;100943.59;;;10.05;100.00
69751;BME280;57335;52.288;6.056;2023-03-18T06:33:29;100948.81;;;10.05;100.00
69751;BME280;57335;52.288;6.056;2023-03-18T06:35:56;100956.69;;;10.05;100.00
69751;BME280;57335;52.288;6.056;2023-03-18T06:38:22;100963.13;;;10.09;100.00
69751;BME280;57335;52.288;6.056;2023-03-18T06:40:49;100966.97;;;10.07;100.00
69751;BME280;57335;52.288;6.056;2023-03-18T06:43:15;100961.31;;;10.10;100.00
69751;BME280;57335;52.288;6.056;2023-03-18T06:45:42;100965.34;;;10.12;100.00
69751;BME280;57335;52.288;6.056;2023-03-18T06:48:09;100973.41;;;10.17;100.00
69751;BME280;57335;52.288;6.056;2023-03-18T06:50:35;100978.03;;;10.22;100.00
69751;BME280;57335;52.288;6.056;2023-03-18T06:53:01;100971.81;;;10.23;100.00
69751;BME280;57335;52.288;6.056;2023-03-18T06:55:28;100977.66;;;10.25;100.00
69751;BME280;57335;52.288;6.056;2023-03-18T06:57:54;100984.94;;;10.30;100.00
69751;BME280;57335;52.288;6.056;2023-03-18T07:00:21;100978.69;;;10.31;100.00
69751;BME280;57335;52.288;6.056;2023-03-18T07:02:47;100986.13;;;10.34;100.00
69751;BME280;57335;52.288;6.056;2023-03-18T07:05:14;100976.50;;;10.34;100.00
69751;BME280;57335;52.288;6.056;2023-03-18T07:07:40;100970.63;;;10.39;100.00
69751;BME280;57335;52.288;6.056;2023-03-18T07:10:08;100961.97;;;10.45;100.00
69751;BME280;57335;52.288;6.056;2023-03-18T07:12:35;100967.59;;;10.55;100.00
69751;BME280;57335;52.288;6.056;2023-03-18T07:15:02;100962.97;;;10.64;100.00
69751;BME280;57335;52.288;6.056;2023-03-18T07:17:31;100964.56;;;10.72;100.00
69751;BME280;57335;52.288;6.056;2023-03-18T07:19:57;100976.47;;;10.74;100.00
69751;BME280;57335;52.288;6.056;2023-03-18T07:22:23;100986.53;;;10.84;100.00
69751;BME280;57335;52.288;6.056;2023-03-18T07:24:50;100986.94;;;10.88;100.00
69751;BME280;57335;52.288;6.056;2023-03-18T07:27:16;100985.31;;;10.93;100.00
69751;BME280;57335;52.288;6.056;2023-03-18T07:29:43;100991.75;;;11.04;100.00
69751;BME280;57335;52.288;6.056;2023-03-18T07:32:09;100991.50;;;11.12;100.00
69751;BME280;57335;52.288;6.056;2023-03-18T07:34:36;100989.09;;;11.17;100.00
69751;BME280;57335;52.288;6.056;2023-03-18T07:37:02;100997.75;;;11.25;100.00
69751;BME280;57335;52.288;6.056;2023-03-18T07:39:28;101000.53;;;11.36;100.00
69751;BME280;57335;52.288;6.056;2023-03-18T07:41:55;101000.88;;;11.53;100.00
69751;BME280;57335;52.288;6.056;2023-03-18T07:44:21;101004.03;;;11.75;100.00
69751;BME280;57335;52.288;6.056;2023-03-18T07:46:50;101005.19;;;11.93;100.00
69751;BME280;57335;52.288;6.056;2023-03-18T07:49:17;101009.34;;;12.07;100.00
69751;BME280;57335;52.288;6.056;2023-03-18T07:51:43;101016.38;;;12.13;100.00
69751;BME280;57335;52.288;6.056;2023-03-18T07:54:09;101017.50;;;12.24;100.00
69751;BME280;57335;52.288;6.056;2023-03-18T07:56:36;101017.03;;;12.34;100.00
69751;BME280;57335;52.288;6.056;2023-03-18T07:59:02;101012.56;;;12.41;100.00
69751;BME280;57335;52.288;6.056;2023-03-18T08:01:29;101022.22;;;12.47;100.00
69751;BME280;57335;52.288;6.056;2023-03-18T08:03:55;101009.38;;;12.57;100.00
69751;BME280;57335;52.288;6.056;2023-03-18T08:06:21;101014.84;;;12.81;100.00
69751;BME280;57335;52.288;6.056;2023-03-18T08:08:48;101012.16;;;13.31;100.00
69751;BME280;57335;52.288;6.056;2023-03-18T08:11:14;101012.69;;;14.01;97.97
69751;BME280;57335;52.288;6.056;2023-03-18T08:13:41;101009.66;;;14.58;90.14
69751;BME280;57335;52.288;6.056;2023-03-18T08:16:07;101016.53;;;15.06;87.71
69751;BME280;57335;52.288;6.056;2023-03-18T08:18:34;101011.31;;;15.63;88.93
69751;BME280;57335;52.288;6.056;2023-03-18T08:21:00;101021.75;;;16.10;82.59
69751;BME280;57335;52.288;6.056;2023-03-18T08:23:27;101019.53;;;16.70;80.95
69751;BME280;57335;52.288;6.056;2023-03-18T08:25:53;101024.00;;;17.25;78.75
69751;BME280;57335;52.288;6.056;2023-03-18T08:28:19;101028.06;;;17.55;73.17
69751;BME280;57335;52.288;6.056;2023-03-18T08:30:46;101033.66;;;17.81;73.24
69751;BME280;57335;52.288;6.056;2023-03-18T08:33:12;101030.81;;;17.65;72.16
69751;BME280;57335;52.288;6.056;2023-03-18T08:35:39;101036.19;;;17.70;71.78
69751;BME280;57335;52.288;6.056;2023-03-18T08:38:06;101044.19;;;17.53;73.26
69751;BME280;57335;52.288;6.056;2023-03-18T08:40:32;101051.47;;;17.41;74.35
69751;BME280;57335;52.288;6.056;2023-03-18T08:42:59;101054.19;;;17.24;74.36
69751;BME280;57335;52.288;6.056;2023-03-18T08:45:25;101046.44;;;17.01;74.32
69751;BME280;57335;52.288;6.056;2023-03-18T08:47:51;101049.25;;;16.77;74.67
69751;BME280;57335;52.288;6.056;2023-03-18T08:50:18;101048.28;;;16.49;75.27
69751;BME280;57335;52.288;6.056;2023-03-18T08:52:44;101048.22;;;16.44;77.07
69751;BME280;57335;52.288;6.056;2023-03-18T08:55:11;101055.19;;;16.67;78.26
69751;BME280;57335;52.288;6.056;2023-03-18T08:57:37;101052.84;;;17.05;76.57
69751;BME280;57335;52.288;6.056;2023-03-18T09:00:05;101059.28;;;17.31;74.64
69751;BME280;57335;52.288;6.056;2023-03-18T09:02:31;101057.72;;;17.52;74.46
69751;BME280;57335;52.288;6.056;2023-03-18T09:04:58;101055.78;;;17.69;73.56
69751;BME280;57335;52.288;6.056;2023-03-18T09:07:26;101053.75;;;17.77;72.88
69751;BME280;57335;52.288;6.056;2023-03-18T09:09:53;101058.75;;;17.95;70.94
69751;BME280;57335;52.288;6.056;2023-03-18T09:12:19;101044.97;;;18.25;71.56
69751;BME280;57335;52.288;6.056;2023-03-18T09:14:45;101049.72;;;18.56;69.62
69751;BME280;57335;52.288;6.056;2023-03-18T09:17:12;101057.25;;;18.69;67.63
69751;BME280;57335;52.288;6.056;2023-03-18T09:19:38;101057.19;;;18.59;66.58
69751;BME280;57335;52.288;6.056;2023-03-18T09:22:05;101066.28;;;18.36;66.79
69751;BME280;57335;52.288;6.056;2023-03-18T09:24:31;101073.72;;;18.06;67.65
69751;BME280;57335;52.288;6.056;2023-03-18T09:26:57;101068.09;;;17.81;68.22
69751;BME280;57335;52.288;6.056;2023-03-18T09:29:24;101071.13;;;17.67;70.05
69751;BME280;57335;52.288;6.056;2023-03-18T09:31:50;101069.97;;;17.58;70.23
69751;BME280;57335;52.288;6.056;2023-03-18T09:34:17;101067.25;;;17.53;70.43
69751;BME280;57335;52.288;6.056;2023-03-18T09:36:43;101070.66;;;17.48;68.86
69751;BME280;57335;52.288;6.056;2023-03-18T09:39:10;101069.81;;;17.48;72.25
69751;BME280;57335;52.288;6.056;2023-03-18T09:41:43;101067.25;;;17.75;71.61
69751;BME280;57335;52.288;6.056;2023-03-18T09:44:22;101067.66;;;18.11;69.60
69751;BME280;57335;52.288;6.056;2023-03-18T09:49:59;101066.25;;;18.03;65.12
69751;BME280;57335;52.288;6.056;2023-03-18T09:52:34;101056.75;;;18.07;66.76
69751;BME280;57335;52.288;6.056;2023-03-18T09:55:36;101056.44;;;18.31;69.36
69751;BME280;57335;52.288;6.056;2023-03-18T09:58:17;101059.78;;;18.53;65.69
69751;BME280;57335;52.288;6.056;2023-03-18T10:00:45;101071.31;;;18.64;66.51
69751;BME280;57335;52.288;6.056;2023-03-18T10:05:54;101065.63;;;18.83;68.06
69751;BME280;57335;52.288;6.056;2023-03-18T10:08:37;101069.47;;;19.07;67.25
69751;BME280;57335;52.288;6.056;2023-03-18T10:11:25;101074.97;;;19.43;65.98
69751;BME280;57335;52.288;6.056;2023-03-18T10:16:47;101071.59;;;19.63;61.87
69751;BME280;57335;52.288;6.056;2023-03-18T10:19:17;101073.44;;;19.52;63.00
69751;BME280;57335;52.288;6.056;2023-03-18T10:21:52;101062.97;;;19.30;62.14
69751;BME280;57335;52.288;6.056;2023-03-18T10:24:35;101065.28;;;19.17;63.21
69751;BME280;57335;52.288;6.056;2023-03-18T10:33:16;101075.69;;;18.48;62.66
69751;BME280;57335;52.288;6.056;2023-03-18T10:38:48;101078.91;;;18.56;65.61
69751;BME280;57335;52.288;6.056;2023-03-18T10:41:16;101076.19;;;18.45;63.90
69751;BME280;57335;52.288;6.056;2023-03-18T10:43:48;101086.88;;;18.23;62.97
69751;BME280;57335;52.288;6.056;2023-03-18T10:46:17;101084.75;;;18.25;63.45
69751;BME280;57335;52.288;6.056;2023-03-18T10:48:47;101079.00;;;18.33;64.63
69751;BME280;57335;52.288;6.056;2023-03-18T10:51:20;101069.72;;;18.36;64.11
69751;BME280;57335;52.288;6.056;2023-03-18T10:54:14;101076.00;;;18.25;62.38
69751;BME280;57335;52.288;6.056;2023-03-18T10:56:44;101071.16;;;18.17;62.81
69751;BME280;57335;52.288;6.056;2023-03-18T10:59:13;101065.44;;;18.30;65.66
69751;BME280;57335;52.288;6.056;2023-03-18T11:01:44;101061.03;;;18.41;66.27
69751;BME280;57335;52.288;6.056;2023-03-18T11:04:14;101061.81;;;18.41;64.72
69751;BME280;57335;52.288;6.056;2023-03-18T11:06:47;101067.75;;;18.21;65.35
69751;BME280;57335;52.288;6.056;2023-03-18T11:09:17;101061.09;;;18.19;65.01
69751;BME280;57335;52.288;6.056;2023-03-18T11:11:46;101064.03;;;17.95;66.19
69751;BME280;57335;52.288;6.056;2023-03-18T11:14:15;101056.56;;;17.70;67.54
69751;BME280;57335;52.288;6.056;2023-03-18T11:17:02;101057.53;;;17.59;66.61
69751;BME280;57335;52.288;6.056;2023-03-18T11:19:30;101054.09;;;17.58;68.24
69751;BME280;57335;52.288;6.056;2023-03-18T11:22:13;101052.41;;;17.30;68.97
69751;BME280;57335;52.288;6.056;2023-03-18T11:24:42;101045.38;;;17.41;70.11
69751;BME280;57335;52.288;6.056;2023-03-18T11:29:43;101061.84;;;17.43;68.75
69751;BME280;57335;52.288;6.056;2023-03-18T11:32:26;101058.00;;;17.33;68.81
69751;BME280;57335;52.288;6.056;2023-03-18T11:34:58;101053.13;;;17.25;68.02
69751;BME280;57335;52.288;6.056;2023-03-18T11:37:37;101056.53;;;17.21;68.65
69751;BME280;57335;52.288;6.056;2023-03-18T11:40:14;101056.63;;;17.09;69.76
69751;BME280;57335;52.288;6.056;2023-03-18T11:42:41;101056.06;;;17.07;69.57
69751;BME280;57335;52.288;6.056;2023-03-18T11:45:51;101057.81;;;17.18;69.71
69751;BME280;57335;52.288;6.056;2023-03-18T11:48:22;101056.72;;;17.36;69.63
69751;BME280;57335;52.288;6.056;2023-03-18T11:56:44;101054.63;;;17.60;70.61
69751;BME280;57335;52.288;6.056;2023-03-18T11:59:17;101060.59;;;17.72;68.47
69751;BME280;57335;52.288;6.056;2023-03-18T12:01:54;101059.22;;;17.70;67.72
69751;BME280;57335;52.288;6.056;2023-03-18T12:09:52;101048.59;;;17.87;68.15
69751;BME280;57335;52.288;6.056;2023-03-18T12:15:29;101051.78;;;17.89;65.42
69751;BME280;57335;52.288;6.056;2023-03-18T12:18:15;101053.56;;;17.83;63.91
69751;BME280;57335;52.288;6.056;2023-03-18T12:20:51;101047.91;;;17.74;65.67
69751;BME280;57335;52.288;6.056;2023-03-18T12:23:45;101042.38;;;17.81;64.98
69751;BME280;57335;52.288;6.056;2023-03-18T12:26:24;101045.00;;;17.98;66.82
69751;BME280;57335;52.288;6.056;2023-03-18T12:31:54;101052.75;;;17.83;64.00
69751;BME280;57335;52.288;6.056;2023-03-18T12:37:28;101052.41;;;17.74;66.46
69751;BME280;57335;52.288;6.056;2023-03-18T12:43:04;101038.47;;;17.62;67.25
69751;BME280;57335;52.288;6.056;2023-03-18T12:45:43;101035.00;;;17.61;65.90
69751;BME280;57335;52.288;6.056;2023-03-18T12:48:16;101037.47;;;17.68;65.37
69751;BME280;57335;52.288;6.056;2023-03-18T12:50:57;101030.38;;;17.73;66.82
69751;BME280;57335;52.288;6.056;2023-03-18T12:53:36;101032.56;;;17.54;64.51
69751;BME280;57335;52.288;6.056;2023-03-18T12:56:15;101037.13;;;17.59;67.48
69751;BME280;57335;52.288;6.056;2023-03-18T13:02:23;101030.16;;;17.53;66.56
69751;BME280;57335;52.288;6.056;2023-03-18T13:04:48;101026.31;;;17.44;67.32
69751;BME280;57335;52.288;6.056;2023-03-18T13:07:24;101026.03;;;17.40;66.66
69751;BME280;57335;52.288;6.056;2023-03-18T13:10:06;101028.75;;;17.45;66.26
69751;BME280;57335;52.288;6.056;2023-03-18T13:12:42;101033.28;;;17.50;66.64
69751;BME280;57335;52.288;6.056;2023-03-18T13:15:21;101034.34;;;17.49;64.47
69751;BME280;57335;52.288;6.056;2023-03-18T13:17:50;101036.25;;;17.53;63.77
69751;BME280;57335;52.288;6.056;2023-03-18T13:20:23;101033.28;;;17.50;62.85
69751;BME280;57335;52.288;6.056;2023-03-18T13:22:52;101038.09;;;17.53;62.17
69751;BME280;57335;52.288;6.056;2023-03-18T13:31:15;101039.34;;;17.45;65.70
69751;BME280;57335;52.288;6.056;2023-03-18T13:37:07;101036.81;;;17.33;65.18
69751;BME280;57335;52.288;6.056;2023-03-18T13:42:28;101028.00;;;16.89;64.26
69751;BME280;57335;52.288;6.056;2023-03-18T13:45:15;101030.09;;;16.87;64.44
69751;BME280;57335;52.288;6.056;2023-03-18T13:47:44;101027.50;;;16.75;62.46
69751;BME280;57335;52.288;6.056;2023-03-18T13:52:45;101028.44;;;16.64;65.41
69751;BME280;57335;52.288;6.056;2023-03-18T13:55:24;101037.81;;;16.54;64.72
69751;BME280;57335;52.288;6.056;2023-03-18T13:58:08;101027.47;;;16.36;66.26
69751;BME280;57335;52.288;6.056;2023-03-18T14:01:12;101040.41;;;16.21;70.44
69751;BME280;57335;52.288;6.056;2023-03-18T14:08:48;101031.47;;;15.93;74.71
69751;BME280;57335;52.288;6.056;2023-03-18T14:13:43;101028.88;;;15.69;75.12
69751;BME280;57335;52.288;6.056;2023-03-18T14:16:15;101031.22;;;15.66;76.50